logo
Rechercher aéroport 
image banner adimage banner adimage banner ad
image banner ad

DIBK - Bouake

Situé à , Cote D'Ivoire

ICAO - DIBK, IATA - BYK

Données fournies par Airmate  

Information générale

Coordonnées: N7°45'9" W5°4'4"
Élévation : 1231 feet MSL.
 
Voir autres Aéroports à Vallée du Bandama

Données opérationnelles

Special qualification required
Heure actuelle UTC:
Heure actuelle locale:
Météo
METAR: DIBK 222300Z 18008KT 8000 FEW013 27/24 Q1015 NOSIG
TAF: TAF DIBK 222306Z 2300/2324 20007KT 8000 SCT013 PROB30 TEMPO 2300/2303 TSRA BKN010 FEW023CB BKN030 PROB40 2305/2309 4000 BR BKN011 TEMPO 2309/2315 BKN013
Voir NOTAMs / SUP AIP / TFR affectant cet aéroport [VIEW]
Fréquences de communication: [VIEW]

Pistes:

Identifiant RWYQFULongueur (ft)Largeur (ft)SurfaceLDA (ft)
0324°10827148ASP
21204°10827148ASP

Coordonnées de l'aéroport

Adresse: Cote D'Ivoire

Vue satellite de DIBK